Mayoworth, Wyoming
Current Conditions -  °F | °C
As of 3:53 PM on Wednesday 26 Nov 2014 (Local Time) from KBYG Reporting Station
Overcast Overcast  
Wind Chill: 20°   Ceiling: 3600
Heat Index: 27°   Visibility: 10mi
Dew Point: 23°   Wind: 6mph
Humidity: 85%   Direction: 140°SE
Pressure: 30.17"   Gusts: NA
Location:  43.8063°N, 106.549°W
Report Text: KBYG 262253Z AUTO 14005KT 10SM SCT015 BKN036 OVC070 M03/M05 A3017 RMK AO2 SLP253 T10281050
Loading
Personal Weather Stations






























Interactive Weather Map New forecast layout! Learn more

10-Day Weather Forecast

Advertisements
Track Severe Weather on mobile